sensor_id;sensor_type;location;lat;lon;timestamp;pressure;altitude;pressure_sealevel;temperature;humidity
12358;BME280;6243;51.244;6.774;2023-02-23T00:00:50;150798.69;;;13.23;100.00
12358;BME280;6243;51.244;6.774;2023-02-23T00:03:15;150798.69;;;13.23;100.00
12358;BME280;6243;51.244;6.774;2023-02-23T00:05:42;150798.69;;;13.23;100.00
12358;BME280;6243;51.244;6.774;2023-02-23T00:08:08;150788.50;;;13.19;100.00
12358;BME280;6243;51.244;6.774;2023-02-23T00:10:33;150775.75;;;13.14;100.00
12358;BME280;6243;51.244;6.774;2023-02-23T00:12:59;150777.03;;;13.15;100.00
12358;BME280;6243;51.244;6.774;2023-02-23T00:15:25;150780.91;;;13.16;100.00
12358;BME280;6243;51.244;6.774;2023-02-23T00:17:52;150775.75;;;13.14;100.00
12358;BME280;6243;51.244;6.774;2023-02-23T00:20:18;150782.13;;;13.17;100.00
12358;BME280;6243;51.244;6.774;2023-02-23T00:22:45;150775.75;;;13.14;100.00
12358;BME280;6243;51.244;6.774;2023-02-23T00:25:10;150710.81;;;12.89;100.00
12358;BME280;6243;51.244;6.774;2023-02-23T00:27:36;150746.47;;;13.03;100.00
12358;BME280;6243;51.244;6.774;2023-02-23T00:30:02;150728.63;;;12.96;100.00
12358;BME280;6243;51.244;6.774;2023-02-23T00:32:29;150740.09;;;13.00;100.00
12358;BME280;6243;51.244;6.774;2023-02-23T00:34:54;150750.28;;;13.04;100.00
12358;BME280;6243;51.244;6.774;2023-02-23T00:37:20;150765.59;;;13.10;100.00
12358;BME280;6243;51.244;6.774;2023-02-23T00:39:47;150750.28;;;13.04;100.00
12358;BME280;6243;51.244;6.774;2023-02-23T00:42:12;150700.56;;;12.84;100.00
12358;BME280;6243;51.244;6.774;2023-02-23T00:44:38;150745.19;;;13.02;100.00
12358;BME280;6243;51.244;6.774;2023-02-23T00:47:03;150755.41;;;13.06;100.00
12358;BME280;6243;51.244;6.774;2023-02-23T00:49:29;150752.84;;;13.05;100.00
12358;BME280;6243;51.244;6.774;2023-02-23T00:51:54;150755.41;;;13.06;100.00
12358;BME280;6243;51.244;6.774;2023-02-23T00:54:20;150751.56;;;13.05;100.00
12358;BME280;6243;51.244;6.774;2023-02-23T00:56:47;150745.19;;;13.02;100.00
12358;BME280;6243;51.244;6.774;2023-02-23T00:59:13;150759.22;;;13.08;100.00
12358;BME280;6243;51.244;6.774;2023-02-23T01:01:40;150759.22;;;13.08;100.00
12358;BME280;6243;51.244;6.774;2023-02-23T01:04:06;150701.84;;;12.85;100.00
12358;BME280;6243;51.244;6.774;2023-02-23T01:06:32;150684.03;;;12.78;100.00
12358;BME280;6243;51.244;6.774;2023-02-23T01:08:58;150712.09;;;12.89;100.00
12358;BME280;6243;51.244;6.774;2023-02-23T01:11:24;150727.34;;;12.95;100.00
12358;BME280;6243;51.244;6.774;2023-02-23T01:13:54;150704.44;;;12.86;100.00
12358;BME280;6243;51.244;6.774;2023-02-23T01:16:23;150678.94;;;12.76;100.00
12358;BME280;6243;51.244;6.774;2023-02-23T01:18:49;150705.72;;;12.87;100.00
12358;BME280;6243;51.244;6.774;2023-02-23T01:21:16;150713.31;;;12.90;100.00
12358;BME280;6243;51.244;6.774;2023-02-23T01:23:43;150729.88;;;12.96;100.00
12358;BME280;6243;51.244;6.774;2023-02-23T01:26:14;150684.03;;;12.78;100.00
12358;BME280;6243;51.244;6.774;2023-02-23T01:28:40;150689.13;;;12.80;100.00
12358;BME280;6243;51.244;6.774;2023-02-23T01:31:08;150713.31;;;12.90;100.00
12358;BME280;6243;51.244;6.774;2023-02-23T01:33:34;150713.31;;;12.90;100.00
12358;BME280;6243;51.244;6.774;2023-02-23T01:35:59;150724.78;;;12.94;100.00
12358;BME280;6243;51.244;6.774;2023-02-23T01:38:25;150727.34;;;12.95;100.00
12358;BME280;6243;51.244;6.774;2023-02-23T01:40:50;150717.16;;;12.91;100.00
12358;BME280;6243;51.244;6.774;2023-02-23T01:43:18;150668.75;;;12.72;100.00
12358;BME280;6243;51.244;6.774;2023-02-23T01:45:44;150587.28;;;12.40;100.00
12358;BME280;6243;51.244;6.774;2023-02-23T01:48:13;150675.13;;;12.74;100.00
12358;BME280;6243;51.244;6.774;2023-02-23T01:50:44;150696.78;;;12.83;100.00
12358;BME280;6243;51.244;6.774;2023-02-23T01:53:13;150723.53;;;12.94;100.00
12358;BME280;6243;51.244;6.774;2023-02-23T01:55:39;150704.44;;;12.86;100.00
12358;BME280;6243;51.244;6.774;2023-02-23T01:58:11;150727.34;;;12.95;100.00
12358;BME280;6243;51.244;6.774;2023-02-23T02:00:39;150713.31;;;12.90;100.00
12358;BME280;6243;51.244;6.774;2023-02-23T02:03:08;150733.72;;;12.98;100.00
12358;BME280;6243;51.244;6.774;2023-02-23T02:05:38;150741.31;;;13.01;100.00
12358;BME280;6243;51.244;6.774;2023-02-23T02:08:06;150704.44;;;12.86;100.00
12358;BME280;6243;51.244;6.774;2023-02-23T02:10:32;150703.16;;;12.86;100.00
12358;BME280;6243;51.244;6.774;2023-02-23T02:12:57;150714.59;;;12.90;100.00
12358;BME280;6243;51.244;6.774;2023-02-23T02:15:26;150656.03;;;12.67;100.00
12358;BME280;6243;51.244;6.774;2023-02-23T02:18:01;150712.09;;;12.89;100.00
12358;BME280;6243;51.244;6.774;2023-02-23T02:20:49;150719.69;;;12.92;100.00
12358;BME280;6243;51.244;6.774;2023-02-23T02:24:00;150700.56;;;12.84;100.00
12358;BME280;6243;51.244;6.774;2023-02-23T02:26:42;150698.06;;;12.83;100.00
12358;BME280;6243;51.244;6.774;2023-02-23T02:32:32;150720.97;;;12.93;100.00
12358;BME280;6243;51.244;6.774;2023-02-23T02:35:16;150717.16;;;12.91;100.00
12358;BME280;6243;51.244;6.774;2023-02-23T02:37:57;150732.44;;;12.97;100.00
12358;BME280;6243;51.244;6.774;2023-02-23T02:40:30;150712.09;;;12.89;100.00
12358;BME280;6243;51.244;6.774;2023-02-23T02:43:04;150631.81;;;12.57;100.00
12358;BME280;6243;51.244;6.774;2023-02-23T02:45:38;150696.78;;;12.83;100.00
12358;BME280;6243;51.244;6.774;2023-02-23T02:48:14;150714.59;;;12.90;100.00
12358;BME280;6243;51.244;6.774;2023-02-23T02:50:43;150713.31;;;12.90;100.00
12358;BME280;6243;51.244;6.774;2023-02-23T02:53:15;150719.69;;;12.92;100.00
12358;BME280;6243;51.244;6.774;2023-02-23T02:55:43;150723.53;;;12.94;100.00
12358;BME280;6243;51.244;6.774;2023-02-23T02:58:11;150735.00;;;12.98;100.00
12358;BME280;6243;51.244;6.774;2023-02-23T03:00:38;150722.25;;;12.93;100.00
12358;BME280;6243;51.244;6.774;2023-02-23T03:03:04;150733.72;;;12.98;100.00
12358;BME280;6243;51.244;6.774;2023-02-23T03:05:40;150723.53;;;12.94;100.00
12358;BME280;6243;51.244;6.774;2023-02-23T03:08:12;150703.16;;;12.86;100.00
12358;BME280;6243;51.244;6.774;2023-02-23T03:10:45;150719.69;;;12.92;100.00
12358;BME280;6243;51.244;6.774;2023-02-23T03:13:17;150720.97;;;12.93;100.00
12358;BME280;6243;51.244;6.774;2023-02-23T03:15:54;150706.94;;;12.87;100.00
12358;BME280;6243;51.244;6.774;2023-02-23T03:18:39;150706.94;;;12.87;100.00
12358;BME280;6243;51.244;6.774;2023-02-23T03:21:14;150714.59;;;12.90;100.00
12358;BME280;6243;51.244;6.774;2023-02-23T03:23:49;150704.44;;;12.86;100.00
12358;BME280;6243;51.244;6.774;2023-02-23T03:26:20;150714.59;;;12.90;100.00
12358;BME280;6243;51.244;6.774;2023-02-23T03:28:54;150653.50;;;12.66;100.00
12358;BME280;6243;51.244;6.774;2023-02-23T03:31:26;150664.97;;;12.70;100.00
12358;BME280;6243;51.244;6.774;2023-02-23T03:33:57;150661.09;;;12.69;100.00
12358;BME280;6243;51.244;6.774;2023-02-23T03:36:31;150670.06;;;12.72;100.00
12358;BME280;6243;51.244;6.774;2023-02-23T03:39:06;150684.03;;;12.78;100.00
12358;BME280;6243;51.244;6.774;2023-02-23T03:41:37;150635.66;;;12.59;100.00
12358;BME280;6243;51.244;6.774;2023-02-23T03:44:08;150678.94;;;12.76;100.00
12358;BME280;6243;51.244;6.774;2023-02-23T03:46:36;150717.16;;;12.91;100.00
12358;BME280;6243;51.244;6.774;2023-02-23T03:49:06;150712.09;;;12.89;100.00
12358;BME280;6243;51.244;6.774;2023-02-23T03:51:36;150701.84;;;12.85;100.00
12358;BME280;6243;51.244;6.774;2023-02-23T03:54:09;150712.09;;;12.89;100.00
12358;BME280;6243;51.244;6.774;2023-02-23T03:56:40;150710.81;;;12.89;100.00
12358;BME280;6243;51.244;6.774;2023-02-23T03:59:08;150713.31;;;12.90;100.00
12358;BME280;6243;51.244;6.774;2023-02-23T04:01:37;150700.56;;;12.84;100.00
12358;BME280;6243;51.244;6.774;2023-02-23T04:04:03;150698.06;;;12.83;100.00
12358;BME280;6243;51.244;6.774;2023-02-23T04:06:34;150685.31;;;12.78;100.00
12358;BME280;6243;51.244;6.774;2023-02-23T04:09:05;150701.84;;;12.85;100.00
12358;BME280;6243;51.244;6.774;2023-02-23T04:11:38;150698.06;;;12.83;100.00
12358;BME280;6243;51.244;6.774;2023-02-23T04:14:11;150682.78;;;12.77;100.00
12358;BME280;6243;51.244;6.774;2023-02-23T04:16:40;150684.03;;;12.78;100.00
12358;BME280;6243;51.244;6.774;2023-02-23T04:19:06;150691.69;;;12.81;100.00
12358;BME280;6243;51.244;6.774;2023-02-23T04:21:32;150710.81;;;12.89;100.00
12358;BME280;6243;51.244;6.774;2023-02-23T04:23:57;150690.41;;;12.80;100.00
12358;BME280;6243;51.244;6.774;2023-02-23T04:26:24;150713.31;;;12.90;100.00
12358;BME280;6243;51.244;6.774;2023-02-23T04:28:50;150699.34;;;12.84;100.00
12358;BME280;6243;51.244;6.774;2023-02-23T04:31:15;150687.88;;;12.79;100.00
12358;BME280;6243;51.244;6.774;2023-02-23T04:33:41;150684.03;;;12.78;100.00
12358;BME280;6243;51.244;6.774;2023-02-23T04:36:06;150704.44;;;12.86;100.00
12358;BME280;6243;51.244;6.774;2023-02-23T04:38:32;150715.88;;;12.91;100.00
12358;BME280;6243;51.244;6.774;2023-02-23T04:40:58;150704.44;;;12.86;100.00
12358;BME280;6243;51.244;6.774;2023-02-23T04:43:24;150703.16;;;12.86;100.00
12358;BME280;6243;51.244;6.774;2023-02-23T04:45:50;150647.13;;;12.63;100.00
12358;BME280;6243;51.244;6.774;2023-02-23T04:48:15;150663.69;;;12.70;100.00
12358;BME280;6243;51.244;6.774;2023-02-23T04:50:41;150670.06;;;12.72;100.00
12358;BME280;6243;51.244;6.774;2023-02-23T04:53:06;150667.47;;;12.71;100.00
12358;BME280;6243;51.244;6.774;2023-02-23T04:55:32;150654.75;;;12.66;100.00
12358;BME280;6243;51.244;6.774;2023-02-23T04:57:58;150664.97;;;12.70;100.00
12358;BME280;6243;51.244;6.774;2023-02-23T05:00:26;150687.88;;;12.79;100.00
12358;BME280;6243;51.244;6.774;2023-02-23T05:02:52;150658.59;;;12.68;100.00
12358;BME280;6243;51.244;6.774;2023-02-23T05:05:17;150663.69;;;12.70;100.00
12358;BME280;6243;51.244;6.774;2023-02-23T05:07:43;150656.03;;;12.67;100.00
12358;BME280;6243;51.244;6.774;2023-02-23T05:10:10;150642.03;;;12.61;100.00
12358;BME280;6243;51.244;6.774;2023-02-23T05:12:35;150643.28;;;12.62;100.00
12358;BME280;6243;51.244;6.774;2023-02-23T05:15:01;150634.38;;;12.58;100.00
12358;BME280;6243;51.244;6.774;2023-02-23T05:17:28;150630.59;;;12.57;100.00
12358;BME280;6243;51.244;6.774;2023-02-23T05:19:53;150635.66;;;12.59;100.00
12358;BME280;6243;51.244;6.774;2023-02-23T05:22:19;150620.38;;;12.53;100.00
12358;BME280;6243;51.244;6.774;2023-02-23T05:24:44;150644.56;;;12.62;100.00
12358;BME280;6243;51.244;6.774;2023-02-23T05:27:10;150647.13;;;12.63;100.00
12358;BME280;6243;51.244;6.774;2023-02-23T05:29:36;150647.13;;;12.63;100.00
12358;BME280;6243;51.244;6.774;2023-02-23T05:32:01;150617.84;;;12.52;100.00
12358;BME280;6243;51.244;6.774;2023-02-23T05:34:28;150628.03;;;12.56;100.00
12358;BME280;6243;51.244;6.774;2023-02-23T05:36:54;150621.66;;;12.53;100.00
12358;BME280;6243;51.244;6.774;2023-02-23T05:39:19;150612.75;;;12.50;100.00
12358;BME280;6243;51.244;6.774;2023-02-23T05:41:45;150617.84;;;12.52;100.00
12358;BME280;6243;51.244;6.774;2023-02-23T05:44:11;150612.75;;;12.50;100.00
12358;BME280;6243;51.244;6.774;2023-02-23T05:46:36;150633.09;;;12.58;100.00
12358;BME280;6243;51.244;6.774;2023-02-23T05:49:02;150636.97;;;12.59;100.00
12358;BME280;6243;51.244;6.774;2023-02-23T05:51:30;150648.41;;;12.64;100.00
12358;BME280;6243;51.244;6.774;2023-02-23T05:53:56;150628.03;;;12.56;100.00
12358;BME280;6243;51.244;6.774;2023-02-23T05:56:21;150628.03;;;12.56;100.00
12358;BME280;6243;51.244;6.774;2023-02-23T05:58:48;150644.56;;;12.62;100.00
12358;BME280;6243;51.244;6.774;2023-02-23T06:01:13;150633.09;;;12.58;100.00
12358;BME280;6243;51.244;6.774;2023-02-23T06:03:39;150624.22;;;12.54;100.00
12358;BME280;6243;51.244;6.774;2023-02-23T06:06:05;150635.66;;;12.59;100.00
12358;BME280;6243;51.244;6.774;2023-02-23T06:08:32;150628.03;;;12.56;100.00
12358;BME280;6243;51.244;6.774;2023-02-23T06:10:58;150629.31;;;12.56;100.00
12358;BME280;6243;51.244;6.774;2023-02-23T06:13:23;150622.94;;;12.54;100.00
12358;BME280;6243;51.244;6.774;2023-02-23T06:15:49;150636.97;;;12.59;100.00
12358;BME280;6243;51.244;6.774;2023-02-23T06:18:14;150626.72;;;12.55;100.00
12358;BME280;6243;51.244;6.774;2023-02-23T06:20:40;150568.19;;;12.32;100.00
12358;BME280;6243;51.244;6.774;2023-02-23T06:23:05;150574.53;;;12.35;100.00
12358;BME280;6243;51.244;6.774;2023-02-23T06:25:33;150587.28;;;12.40;100.00
12358;BME280;6243;51.244;6.774;2023-02-23T06:27:58;150569.47;;;12.33;100.00
12358;BME280;6243;51.244;6.774;2023-02-23T06:30:24;150593.66;;;12.42;100.00
12358;BME280;6243;51.244;6.774;2023-02-23T06:32:50;150574.53;;;12.35;100.00
12358;BME280;6243;51.244;6.774;2023-02-23T06:35:15;150584.75;;;12.39;100.00
12358;BME280;6243;51.244;6.774;2023-02-23T06:37:41;150602.53;;;12.46;100.00
12358;BME280;6243;51.244;6.774;2023-02-23T06:40:07;150620.38;;;12.53;100.00
12358;BME280;6243;51.244;6.774;2023-02-23T06:42:34;150611.47;;;12.49;100.00
12358;BME280;6243;51.244;6.774;2023-02-23T06:45:00;150620.38;;;12.53;100.00
12358;BME280;6243;51.244;6.774;2023-02-23T06:47:25;150569.47;;;12.33;100.00
12358;BME280;6243;51.244;6.774;2023-02-23T06:49:51;150597.44;;;12.44;100.00
12358;BME280;6243;51.244;6.774;2023-02-23T06:52:16;150607.69;;;12.48;100.00
12358;BME280;6243;51.244;6.774;2023-02-23T06:54:42;150619.13;;;12.52;100.00
12358;BME280;6243;51.244;6.774;2023-02-23T06:57:08;150635.66;;;12.59;100.00
12358;BME280;6243;51.244;6.774;2023-02-23T06:59:35;150647.13;;;12.63;100.00
12358;BME280;6243;51.244;6.774;2023-02-23T07:02:01;150650.94;;;12.65;100.00
12358;BME280;6243;51.244;6.774;2023-02-23T07:04:26;150640.75;;;12.61;100.00
12358;BME280;6243;51.244;6.774;2023-02-23T07:06:52;150661.09;;;12.69;100.00
12358;BME280;6243;51.244;6.774;2023-02-23T07:09:17;150666.19;;;12.71;100.00
12358;BME280;6243;51.244;6.774;2023-02-23T07:11:43;150652.22;;;12.65;100.00
12358;BME280;6243;51.244;6.774;2023-02-23T07:14:09;150653.50;;;12.66;100.00
12358;BME280;6243;51.244;6.774;2023-02-23T07:16:37;150633.09;;;12.58;100.00
12358;BME280;6243;51.244;6.774;2023-02-23T07:19:04;150643.28;;;12.62;100.00
12358;BME280;6243;51.244;6.774;2023-02-23T07:21:30;150656.03;;;12.67;100.00
12358;BME280;6243;51.244;6.774;2023-02-23T07:23:55;150657.31;;;12.67;100.00
12358;BME280;6243;51.244;6.774;2023-02-23T07:26:21;150666.19;;;12.71;100.00
12358;BME280;6243;51.244;6.774;2023-02-23T07:28:46;150677.66;;;12.75;100.00
12358;BME280;6243;51.244;6.774;2023-02-23T07:31:12;150634.38;;;12.58;100.00
12358;BME280;6243;51.244;6.774;2023-02-23T07:33:38;150638.19;;;12.60;100.00
12358;BME280;6243;51.244;6.774;2023-02-23T07:36:04;150649.66;;;12.64;100.00
12358;BME280;6243;51.244;6.774;2023-02-23T07:38:30;150648.41;;;12.64;100.00
12358;BME280;6243;51.244;6.774;2023-02-23T07:40:56;150644.56;;;12.62;100.00
12358;BME280;6243;51.244;6.774;2023-02-23T07:43:21;150647.13;;;12.63;100.00
12358;BME280;6243;51.244;6.774;2023-02-23T07:45:47;150658.59;;;12.68;100.00
12358;BME280;6243;51.244;6.774;2023-02-23T07:48:12;150684.03;;;12.78;100.00
12358;BME280;6243;51.244;6.774;2023-02-23T07:50:40;150686.59;;;12.79;100.00
12358;BME280;6243;51.244;6.774;2023-02-23T07:53:05;150689.13;;;12.80;100.00
12358;BME280;6243;51.244;6.774;2023-02-23T07:55:31;150690.41;;;12.80;100.00
12358;BME280;6243;51.244;6.774;2023-02-23T07:57:56;150699.34;;;12.84;100.00
12358;BME280;6243;51.244;6.774;2023-02-23T08:00:22;150708.22;;;12.88;100.00
12358;BME280;6243;51.244;6.774;2023-02-23T08:02:48;150699.34;;;12.84;100.00
12358;BME280;6243;51.244;6.774;2023-02-23T08:05:14;150700.56;;;12.84;100.00
12358;BME280;6243;51.244;6.774;2023-02-23T08:07:40;150710.81;;;12.89;100.00
12358;BME280;6243;51.244;6.774;2023-02-23T08:10:07;150709.50;;;12.88;100.00
12358;BME280;6243;51.244;6.774;2023-02-23T08:12:32;150710.81;;;12.89;100.00
12358;BME280;6243;51.244;6.774;2023-02-23T08:14:58;150717.16;;;12.91;100.00
12358;BME280;6243;51.244;6.774;2023-02-23T08:17:23;150709.50;;;12.88;100.00
12358;BME280;6243;51.244;6.774;2023-02-23T08:19:49;150718.41;;;12.92;100.00
12358;BME280;6243;51.244;6.774;2023-02-23T08:22:15;150712.09;;;12.89;100.00
12358;BME280;6243;51.244;6.774;2023-02-23T08:24:41;150680.22;;;12.76;100.00
12358;BME280;6243;51.244;6.774;2023-02-23T08:27:07;150715.88;;;12.91;100.00
12358;BME280;6243;51.244;6.774;2023-02-23T08:29:32;150720.97;;;12.93;100.00
12358;BME280;6243;51.244;6.774;2023-02-23T08:32:00;150732.44;;;12.97;100.00
12358;BME280;6243;51.244;6.774;2023-02-23T08:34:26;150732.44;;;12.97;100.00
12358;BME280;6243;51.244;6.774;2023-02-23T08:36:51;150732.44;;;12.97;100.00
12358;BME280;6243;51.244;6.774;2023-02-23T08:39:17;150741.31;;;13.01;100.00
12358;BME280;6243;51.244;6.774;2023-02-23T08:41:44;150717.16;;;12.91;100.00
12358;BME280;6243;51.244;6.774;2023-02-23T08:44:09;150728.63;;;12.96;100.00
12358;BME280;6243;51.244;6.774;2023-02-23T08:46:35;150738.81;;;13.00;100.00
12358;BME280;6243;51.244;6.774;2023-02-23T08:49:00;150708.22;;;12.88;100.00
12358;BME280;6243;51.244;6.774;2023-02-23T08:51:26;150706.94;;;12.87;100.00
12358;BME280;6243;51.244;6.774;2023-02-23T08:53:51;150709.50;;;12.88;100.00
12358;BME280;6243;51.244;6.774;2023-02-23T08:56:17;150714.59;;;12.90;100.00
12358;BME280;6243;51.244;6.774;2023-02-23T08:58:44;150719.69;;;12.92;100.00
12358;BME280;6243;51.244;6.774;2023-02-23T09:01:15;150735.00;;;12.98;100.00
12358;BME280;6243;51.244;6.774;2023-02-23T09:03:41;150745.19;;;13.02;100.00
12358;BME280;6243;51.244;6.774;2023-02-23T09:06:09;150736.25;;;12.99;100.00
12358;BME280;6243;51.244;6.774;2023-02-23T09:08:34;150727.34;;;12.95;100.00
12358;BME280;6243;51.244;6.774;2023-02-23T09:11:00;150709.50;;;12.88;100.00
12358;BME280;6243;51.244;6.774;2023-02-23T09:13:25;150741.31;;;13.01;100.00
12358;BME280;6243;51.244;6.774;2023-02-23T09:15:52;150759.22;;;13.08;100.00
12358;BME280;6243;51.244;6.774;2023-02-23T09:18:18;150760.50;;;13.08;100.00
12358;BME280;6243;51.244;6.774;2023-02-23T09:20:43;150765.59;;;13.10;100.00
12358;BME280;6243;51.244;6.774;2023-02-23T09:23:09;150763.06;;;13.09;100.00
12358;BME280;6243;51.244;6.774;2023-02-23T09:25:38;150757.97;;;13.07;100.00
12358;BME280;6243;51.244;6.774;2023-02-23T09:28:04;150774.53;;;13.14;100.00
12358;BME280;6243;51.244;6.774;2023-02-23T09:30:29;150768.16;;;13.11;100.00
12358;BME280;6243;51.244;6.774;2023-02-23T09:32:56;150773.25;;;13.13;100.00
12358;BME280;6243;51.244;6.774;2023-02-23T09:35:23;150768.16;;;13.11;100.00
12358;BME280;6243;51.244;6.774;2023-02-23T09:37:50;150750.28;;;13.04;100.00
12358;BME280;6243;51.244;6.774;2023-02-23T09:40:18;150783.41;;;13.17;100.00
12358;BME280;6243;51.244;6.774;2023-02-23T09:42:49;150782.13;;;13.17;100.00
12358;BME280;6243;51.244;6.774;2023-02-23T09:45:23;150786.00;;;13.18;100.00
12358;BME280;6243;51.244;6.774;2023-02-23T09:47:58;150807.63;;;13.27;100.00
12358;BME280;6243;51.244;6.774;2023-02-23T09:50:30;150812.72;;;13.29;100.00
12358;BME280;6243;51.244;6.774;2023-02-23T09:52:59;150822.91;;;13.33;100.00
12358;BME280;6243;51.244;6.774;2023-02-23T09:55:27;150816.53;;;13.30;100.00
12358;BME280;6243;51.244;6.774;2023-02-23T09:57:55;150821.66;;;13.32;100.00
12358;BME280;6243;51.244;6.774;2023-02-23T10:00:23;150812.72;;;13.29;100.00
12358;BME280;6243;51.244;6.774;2023-02-23T10:03:09;150805.06;;;13.26;100.00
12358;BME280;6243;51.244;6.774;2023-02-23T10:05:40;150798.69;;;13.23;100.00
12358;BME280;6243;51.244;6.774;2023-02-23T10:08:18;150840.75;;;13.40;100.00
12358;BME280;6243;51.244;6.774;2023-02-23T10:10:47;150824.19;;;13.33;100.00
12358;BME280;6243;51.244;6.774;2023-02-23T10:13:19;150830.56;;;13.36;100.00
12358;BME280;6243;51.244;6.774;2023-02-23T10:15:49;150831.84;;;13.36;100.00
12358;BME280;6243;51.244;6.774;2023-02-23T10:18:25;150843.31;;;13.41;100.00
12358;BME280;6243;51.244;6.774;2023-02-23T10:20:57;150828.00;;;13.35;100.00
12358;BME280;6243;51.244;6.774;2023-02-23T10:23:27;150844.59;;;13.41;100.00
12358;BME280;6243;51.244;6.774;2023-02-23T10:25:56;150826.75;;;13.34;100.00
12358;BME280;6243;51.244;6.774;2023-02-23T10:28:23;150816.53;;;13.30;100.00
12358;BME280;6243;51.244;6.774;2023-02-23T10:30:50;150817.81;;;13.31;100.00
12358;BME280;6243;51.244;6.774;2023-02-23T10:33:20;150784.72;;;13.18;100.00
12358;BME280;6243;51.244;6.774;2023-02-23T10:35:49;150774.53;;;13.14;100.00
12358;BME280;6243;51.244;6.774;2023-02-23T10:38:17;150824.19;;;13.33;100.00
12358;BME280;6243;51.244;6.774;2023-02-23T10:40:45;150828.00;;;13.35;100.00
12358;BME280;6243;51.244;6.774;2023-02-23T10:43:14;150821.66;;;13.32;100.00
12358;BME280;6243;51.244;6.774;2023-02-23T10:45:43;150825.47;;;13.34;100.00
12358;BME280;6243;51.244;6.774;2023-02-23T10:48:14;150825.47;;;13.34;100.00
12358;BME280;6243;51.244;6.774;2023-02-23T10:50:42;150850.91;;;13.44;100.00
12358;BME280;6243;51.244;6.774;2023-02-23T10:53:12;150835.66;;;13.38;100.00
12358;BME280;6243;51.244;6.774;2023-02-23T10:55:39;150824.19;;;13.33;100.00
12358;BME280;6243;51.244;6.774;2023-02-23T10:58:09;150845.81;;;13.42;100.00
12358;BME280;6243;51.244;6.774;2023-02-23T11:00:38;150831.84;;;13.36;100.00
12358;BME280;6243;51.244;6.774;2023-02-23T11:03:17;150840.75;;;13.40;100.00
12358;BME280;6243;51.244;6.774;2023-02-23T11:05:46;150842.03;;;13.40;100.00
12358;BME280;6243;51.244;6.774;2023-02-23T11:08:21;150754.13;;;13.06;100.00
12358;BME280;6243;51.244;6.774;2023-02-23T11:10:55;150799.97;;;13.24;100.00
12358;BME280;6243;51.244;6.774;2023-02-23T11:13:22;150822.91;;;13.33;100.00
12358;BME280;6243;51.244;6.774;2023-02-23T11:15:48;150839.44;;;13.39;100.00
12358;BME280;6243;51.244;6.774;2023-02-23T11:18:19;150828.00;;;13.35;100.00
12358;BME280;6243;51.244;6.774;2023-02-23T11:20:47;150836.94;;;13.38;100.00
12358;BME280;6243;51.244;6.774;2023-02-23T11:23:19;150854.78;;;13.45;100.00
12358;BME280;6243;51.244;6.774;2023-02-23T11:25:46;150838.22;;;13.39;100.00
12358;BME280;6243;51.244;6.774;2023-02-23T11:28:15;150871.31;;;13.52;100.00
12358;BME280;6243;51.244;6.774;2023-02-23T11:30:42;150854.78;;;13.45;100.00
12358;BME280;6243;51.244;6.774;2023-02-23T11:33:15;150863.66;;;13.49;100.00
12358;BME280;6243;51.244;6.774;2023-02-23T11:35:42;150845.81;;;13.42;100.00
12358;BME280;6243;51.244;6.774;2023-02-23T11:38:20;150862.38;;;13.48;100.00
12358;BME280;6243;51.244;6.774;2023-02-23T11:40:58;150835.66;;;13.38;100.00
12358;BME280;6243;51.244;6.774;2023-02-23T11:43:23;150853.47;;;13.45;100.00
12358;BME280;6243;51.244;6.774;2023-02-23T11:45:51;150836.94;;;13.38;100.00
12358;BME280;6243;51.244;6.774;2023-02-23T11:48:21;150845.81;;;13.42;100.00
12358;BME280;6243;51.244;6.774;2023-02-23T11:50:48;150847.13;;;13.42;100.00
12358;BME280;6243;51.244;6.774;2023-02-23T11:53:17;150830.56;;;13.36;100.00
12358;BME280;6243;51.244;6.774;2023-02-23T11:55:47;150835.66;;;13.38;100.00
12358;BME280;6243;51.244;6.774;2023-02-23T11:58:22;150831.84;;;13.36;100.00
12358;BME280;6243;51.244;6.774;2023-02-23T12:00:56;150810.19;;;13.28;100.00
12358;BME280;6243;51.244;6.774;2023-02-23T12:03:24;150817.81;;;13.31;100.00
12358;BME280;6243;51.244;6.774;2023-02-23T12:05:52;150821.66;;;13.32;100.00
12358;BME280;6243;51.244;6.774;2023-02-23T12:08:32;150828.00;;;13.35;100.00
12358;BME280;6243;51.244;6.774;2023-02-23T12:11:02;150817.81;;;13.31;100.00
12358;BME280;6243;51.244;6.774;2023-02-23T12:13:30;150826.75;;;13.34;100.00
12358;BME280;6243;51.244;6.774;2023-02-23T12:16:01;150822.91;;;13.33;100.00
12358;BME280;6243;51.244;6.774;2023-02-23T12:18:41;150788.50;;;13.19;100.00
12358;BME280;6243;51.244;6.774;2023-02-23T12:21:20;150794.88;;;13.22;100.00
12358;BME280;6243;51.244;6.774;2023-02-23T12:23:50;150783.41;;;13.17;100.00
12358;BME280;6243;51.244;6.774;2023-02-23T12:26:20;150797.44;;;13.23;100.00
12358;BME280;6243;51.244;6.774;2023-02-23T12:28:51;150803.81;;;13.25;100.00
12358;BME280;6243;51.244;6.774;2023-02-23T12:31:24;150812.72;;;13.29;100.00
12358;BME280;6243;51.244;6.774;2023-02-23T12:33:54;150797.44;;;13.23;100.00
12358;BME280;6243;51.244;6.774;2023-02-23T12:36:25;150806.34;;;13.26;100.00
12358;BME280;6243;51.244;6.774;2023-02-23T12:38:56;150808.91;;;13.27;100.00
12358;BME280;6243;51.244;6.774;2023-02-23T12:41:32;150814.00;;;13.29;100.00
12358;BME280;6243;51.244;6.774;2023-02-23T12:44:03;150826.75;;;13.34;100.00
12358;BME280;6243;51.244;6.774;2023-02-23T12:46:36;150836.94;;;13.38;100.00
12358;BME280;6243;51.244;6.774;2023-02-23T12:49:10;150836.94;;;13.38;100.00
12358;BME280;6243;51.244;6.774;2023-02-23T12:51:40;150849.69;;;13.43;100.00
12358;BME280;6243;51.244;6.774;2023-02-23T12:54:16;150848.41;;;13.43;100.00
12358;BME280;6243;51.244;6.774;2023-02-23T12:56:53;150826.75;;;13.34;100.00
12358;BME280;6243;51.244;6.774;2023-02-23T12:59:41;150816.53;;;13.30;100.00